Adventure of The Seas — C6SA3 — position and weather

sailwx.info

Track history (hours):
 
Tides and Currents Weather Stations Pressure Air Temp Water Temp Dewpoint Dewpoint Depression Visibility Wind Speed Wind Dir Waves Ship Positions

Adventure of The Seas

Operator: Royal Caribbean Cruises Ltd

Last reported at 2014-Sep-20 19:33 UTC. Time now 2014-Sep-21 04:02 UTC.
Position N 42°53' E 009°58'.

Type: Passenger vessel. MMSI: 311263000.

Date/timePositionNaut miles runAvg speedWind from/ knotsBaromVisibWave heightAir tempDewpointWater temp
2014-Sep-20 19:33N 42°53' E 009°58'1918.8
2014-Sep-20 18:33N 43°11' E 010°05'1918.6
2014-Sep-20 17:33N 43°29' E 010°12'6 6.0
2014-Sep-20 16:33N 43°33' E 010°18'0 0.0
2014-Sep-20 15:33N 43°33' E 010°18'0 0.0
2014-Sep-20 14:30N 43°33' E 010°18'0 0.0
2014-Sep-20 13:33N 43°33' E 010°18'0 0.0
2014-Sep-20 12:33N 43°33' E 010°18'0 0.0
2014-Sep-20 11:33N 43°33' E 010°18'0 0.0
2014-Sep-20 10:33N 43°33' E 010°18'0 0.0
2014-Sep-20 09:33N 43°33' E 010°18'0 0.0
2014-Sep-20 08:33N 43°33' E 010°18'0 0.0
2014-Sep-20 07:33N 43°33' E 010°18'0 0.0
2014-Sep-20 06:33N 43°33' E 010°18'0 0.0
2014-Sep-20 05:33N 43°33' E 010°18'0 0.0
2014-Sep-20 04:33N 43°33' E 010°18'5 4.8
2014-Sep-20 03:33N 43°30' E 010°13'1010.3
2014-Sep-20 02:33N 43°19' E 010°17'1111.2
2014-Sep-20 01:33N 43°09' E 010°21'31 1.1
2014-Sep-18 22:30N 42°50' E 009°48'1819.4
2014-Sep-18 21:33N 43°06' E 009°36'1918.5
2014-Sep-18 20:33N 43°18' E 009°16'2120.7
2014-Sep-18 19:31N 43°23' E 008°48'4820.2
2014-Sep-18 17:08N 43°34' E 007°43'1118.9
2014-Sep-18 16:33N 43°38' E 007°29'8 7.9
2014-Sep-18 15:33N 43°41' E 007°19'0 0.0
2014-Sep-18 14:33N 43°41' E 007°19'0 0.0
2014-Sep-18 13:33N 43°41' E 007°19'0 0.0
2014-Sep-18 12:33N 43°41' E 007°19'0 0.0
2014-Sep-18 11:33N 43°41' E 007°19'0 0.0
2014-Sep-18 10:27N 43°41' E 007°19'0 0.0
2014-Sep-18 09:33N 43°41' E 007°19'0 0.0
2014-Sep-18 08:33N 43°41' E 007°19'0 0.0
2014-Sep-18 07:33N 43°41' E 007°19'0 0.0
2014-Sep-18 06:33N 43°41' E 007°19'1414.3
2014-Sep-18 05:33N 43°28' E 007°12'2020.0
2014-Sep-18 04:32N 43°13' E 006°53'1919.7
2014-Sep-18 03:33N 42°59' E 006°35'1919.4
2014-Sep-18 02:33N 42°49' E 006°12'1818.2
2014-Sep-18 01:33N 42°41' E 005°50'5817.9
2014-Sep-17 22:20N 42°15' E 004°40'1417.9
2014-Sep-17 21:33N 42°08' E 004°24'2018.8
2014-Sep-17 20:30N 41°58' E 004°01'2118.3
2014-Sep-17 19:23N 41°49' E 003°37'1518.2
2014-Sep-17 18:32N 41°41' E 003°18'2118.1
2014-Sep-17 17:23N 41°32' E 002°54'3418.0
2014-Sep-17 15:28N 41°16' E 002°13'185 7.6
2014-Sep-16 15:04N 38°33' E 000°20'914.7
2014-Sep-16 14:29N 38°26' E 000°14'1914.9
2014-Sep-16 13:12N 38°10' E 000°00'1514.6
2014-Sep-16 12:10N 37°57' W 000°10'1014.2
2014-Sep-16 11:29N 37°48' W 000°16'1313.8
2014-Sep-16 10:33N 37°38' W 000°25'1813.9
2014-Sep-16 09:13N 37°25' W 000°42'1113.3
2014-Sep-16 08:23N 37°18' W 000°52'  
2014-Sep-13 09:13N 47°51' W 006°38'26217.6
2014-Sep-12 18:22N 50°26' W 001°15'1519.1
2014-Sep-12 17:33N 50°37' W 000°59'1313.3
2014-Sep-12 16:33N 50°46' W 001°14'10 9.3
2014-Sep-12 15:26N 50°54' W 001°25'1 0.1
2014-Sep-12 03:33N 50°53' W 001°24'9 8.8
2014-Sep-12 02:33N 50°46' W 001°15'1414.0
2014-Sep-12 01:33N 50°38' W 000°58'1716.7
2014-Sep-12 00:32N 50°28' W 000°36'1918.2
2014-Sep-11 23:30N 50°32' W 000°07'1617.0
2014-Sep-11 22:33N 50°36' E 000°18'1616.4
2014-Sep-11 21:33N 50°41' E 000°43'1818.1
2014-Sep-11 20:33N 50°51' E 001°07'2120.6
2014-Sep-11 19:34N 51°04' E 001°31'1919.4
2014-Sep-11 18:33N 51°19' E 001°52'1818.1
2014-Sep-11 17:33N 51°34' E 002°09'  
Track history (hours):
 
Tides and Currents Weather Stations Pressure Air Temp Water Temp Dewpoint Dewpoint Depression Visibility Wind Speed Wind Dir Waves Ship Positions

Adventure of The Seas

Operator: Royal Caribbean Cruises Ltd

Last reported at 2014-Sep-20 19:33 UTC. Time now 2014-Sep-21 04:02 UTC.
Position N 42°53' E 009°58'.

Type: Passenger vessel. MMSI: 311263000.

Date/timePositionNaut miles runAvg speedWind from/ knotsBaromVisibWave heightAir tempDewpointWater temp
2014-Sep-20 19:33N 42°53' E 009°58'1918.8
2014-Sep-20 18:33N 43°11' E 010°05'1918.6
2014-Sep-20 17:33N 43°29' E 010°12'6 6.0
2014-Sep-20 16:33N 43°33' E 010°18'0 0.0
2014-Sep-20 15:33N 43°33' E 010°18'0 0.0
2014-Sep-20 14:30N 43°33' E 010°18'0 0.0
2014-Sep-20 13:33N 43°33' E 010°18'0 0.0
2014-Sep-20 12:33N 43°33' E 010°18'0 0.0
2014-Sep-20 11:33N 43°33' E 010°18'0 0.0
2014-Sep-20 10:33N 43°33' E 010°18'0 0.0
2014-Sep-20 09:33N 43°33' E 010°18'0 0.0
2014-Sep-20 08:33N 43°33' E 010°18'0 0.0
2014-Sep-20 07:33N 43°33' E 010°18'0 0.0
2014-Sep-20 06:33N 43°33' E 010°18'0 0.0
2014-Sep-20 05:33N 43°33' E 010°18'0 0.0
2014-Sep-20 04:33N 43°33' E 010°18'5 4.8
2014-Sep-20 03:33N 43°30' E 010°13'1010.3
2014-Sep-20 02:33N 43°19' E 010°17'1111.2
2014-Sep-20 01:33N 43°09' E 010°21'31 1.1
2014-Sep-18 22:30N 42°50' E 009°48'1819.4
2014-Sep-18 21:33N 43°06' E 009°36'1918.5
2014-Sep-18 20:33N 43°18' E 009°16'2120.7
2014-Sep-18 19:31N 43°23' E 008°48'4820.2
2014-Sep-18 17:08N 43°34' E 007°43'1118.9
2014-Sep-18 16:33N 43°38' E 007°29'8 7.9
2014-Sep-18 15:33N 43°41' E 007°19'0 0.0
2014-Sep-18 14:33N 43°41' E 007°19'0 0.0
2014-Sep-18 13:33N 43°41' E 007°19'0 0.0
2014-Sep-18 12:33N 43°41' E 007°19'0 0.0
2014-Sep-18 11:33N 43°41' E 007°19'0 0.0
2014-Sep-18 10:27N 43°41' E 007°19'0 0.0
2014-Sep-18 09:33N 43°41' E 007°19'0 0.0
2014-Sep-18 08:33N 43°41' E 007°19'0 0.0
2014-Sep-18 07:33N 43°41' E 007°19'0 0.0
2014-Sep-18 06:33N 43°41' E 007°19'1414.3
2014-Sep-18 05:33N 43°28' E 007°12'2020.0
2014-Sep-18 04:32N 43°13' E 006°53'1919.7
2014-Sep-18 03:33N 42°59' E 006°35'1919.4
2014-Sep-18 02:33N 42°49' E 006°12'1818.2
2014-Sep-18 01:33N 42°41' E 005°50'5817.9
2014-Sep-17 22:20N 42°15' E 004°40'1417.9
2014-Sep-17 21:33N 42°08' E 004°24'2018.8
2014-Sep-17 20:30N 41°58' E 004°01'2118.3
2014-Sep-17 19:23N 41°49' E 003°37'1518.2
2014-Sep-17 18:32N 41°41' E 003°18'2118.1
2014-Sep-17 17:23N 41°32' E 002°54'3418.0
2014-Sep-17 15:28N 41°16' E 002°13'185 7.6
2014-Sep-16 15:04N 38°33' E 000°20'914.7
2014-Sep-16 14:29N 38°26' E 000°14'1914.9
2014-Sep-16 13:12N 38°10' E 000°00'1514.6
2014-Sep-16 12:10N 37°57' W 000°10'1014.2
2014-Sep-16 11:29N 37°48' W 000°16'1313.8
2014-Sep-16 10:33N 37°38' W 000°25'1813.9
2014-Sep-16 09:13N 37°25' W 000°42'1113.3
2014-Sep-16 08:23N 37°18' W 000°52'  
2014-Sep-13 09:13N 47°51' W 006°38'26217.6
2014-Sep-12 18:22N 50°26' W 001°15'1519.1
2014-Sep-12 17:33N 50°37' W 000°59'1313.3
2014-Sep-12 16:33N 50°46' W 001°14'10 9.3
2014-Sep-12 15:26N 50°54' W 001°25'1 0.1
2014-Sep-12 03:33N 50°53' W 001°24'9 8.8
2014-Sep-12 02:33N 50°46' W 001°15'1414.0
2014-Sep-12 01:33N 50°38' W 000°58'1716.7
2014-Sep-12 00:32N 50°28' W 000°36'1918.2
2014-Sep-11 23:30N 50°32' W 000°07'1617.0
2014-Sep-11 22:33N 50°36' E 000°18'1616.4
2014-Sep-11 21:33N 50°41' E 000°43'1818.1
2014-Sep-11 20:33N 50°51' E 001°07'2120.6
2014-Sep-11 19:34N 51°04' E 001°31'1919.4
2014-Sep-11 18:33N 51°19' E 001°52'1818.1
2014-Sep-11 17:33N 51°34' E 002°09'  

Dump ship's entire track history